Time,TemperatureF,DewpointF,PressureIn,WindDirection,WindDirectionDegrees,WindSpeedMPH,WindSpeedGustMPH,Humidity,HourlyPrecipIn,Conditions,Clouds,dailyrainin,SoftwareType,DateUTC
2013-08-14 00:00:00,65.8,47.2,29.87,North,5,1.0,6.0,51,0.00,,CLR,0.00,VWS V14.01,2013-08-14 07:00:00,
2013-08-14 00:01:00,64.2,47.2,29.87,North,353,2.0,4.0,54,0.00,,CLR,0.00,VWS V14.01,2013-08-14 07:01:00,
2013-08-14 00:06:00,64.0,47.0,29.87,North,2,2.0,4.0,54,0.00,,CLR,0.00,VWS V14.01,2013-08-14 07:06:00,
2013-08-14 00:11:00,64.0,47.0,29.87,North,359,3.0,4.0,54,0.00,,CLR,0.00,VWS V14.01,2013-08-14 07:11:00,
2013-08-14 00:15:00,65.6,46.5,29.87,WNW,295,1.0,5.0,50,0.00,,CLR,0.00,VWS V14.01,2013-08-14 07:15:00,
2013-08-14 00:16:00,63.9,47.0,29.87,NNW,341,1.0,6.0,54,0.00,,CLR,0.00,VWS V14.01,2013-08-14 07:16:00,
2013-08-14 00:21:00,64.0,46.5,29.87,NNE,15,3.0,4.0,53,0.00,,CLR,0.00,VWS V14.01,2013-08-14 07:21:00,
2013-08-14 00:26:00,64.0,47.0,29.87,North,2,0.0,5.0,54,0.00,,CLR,0.00,VWS V14.01,2013-08-14 07:26:00,
2013-08-14 00:30:00,65.2,47.2,29.87,NW,308,0.0,5.0,52,0.00,,CLR,0.00,VWS V14.01,2013-08-14 07:30:00,
2013-08-14 00:31:00,63.9,47.4,29.87,North,2,0.0,5.0,55,0.00,,CLR,0.00,VWS V14.01,2013-08-14 07:31:00,
2013-08-14 00:36:00,63.4,47.9,29.87,North,2,0.0,2.0,57,0.00,,CLR,0.00,VWS V14.01,2013-08-14 07:36:00,
2013-08-14 00:41:00,63.2,47.3,29.87,North,2,0.0,3.0,56,0.00,,CLR,0.00,VWS V14.01,2013-08-14 07:41:00,
2013-08-14 00:45:00,64.3,46.3,29.87,NW,308,1.0,3.0,52,0.00,,CLR,0.00,VWS V14.01,2013-08-14 07:45:00,
2013-08-14 00:46:00,63.2,47.3,29.87,North,2,2.0,3.0,56,0.00,,CLR,0.00,VWS V14.01,2013-08-14 07:46:00,
2013-08-14 00:51:00,62.9,49.7,29.87,North,360,2.0,2.0,62,0.00,,CLR,0.00,VWS V14.01,2013-08-14 07:51:00,
2013-08-14 00:56:00,62.7,47.7,29.87,North,357,2.0,2.0,58,0.00,,CLR,0.00,VWS V14.01,2013-08-14 07:56:00,
2013-08-14 01:00:00,64.2,47.2,29.87,North,353,0.0,4.0,54,0.00,,CLR,0.00,VWS V14.01,2013-08-14 08:00:00,
2013-08-14 01:01:00,62.7,47.3,29.87,North,357,0.0,2.0,57,0.00,,CLR,0.00,VWS V14.01,2013-08-14 08:01:00,
2013-08-14 01:06:00,62.9,51.0,29.87,North,357,0.0,0.0,65,0.00,,CLR,0.00,VWS V14.01,2013-08-14 08:06:00,
2013-08-14 01:11:00,62.6,51.1,29.87,North,357,0.0,0.0,66,0.00,,CLR,0.00,VWS V14.01,2013-08-14 08:11:00,
2013-08-14 01:15:00,63.9,47.0,29.87,NNW,341,0.0,6.0,54,0.00,,CLR,0.00,VWS V14.01,2013-08-14 08:15:00,
2013-08-14 01:16:00,62.3,47.8,29.86,North,357,3.0,3.0,59,0.00,,CLR,0.00,VWS V14.01,2013-08-14 08:16:00,
2013-08-14 01:21:00,62.3,45.5,29.86,NNW,341,0.0,3.0,54,0.00,,CLR,0.00,VWS V14.01,2013-08-14 08:21:00,
2013-08-14 01:26:00,62.4,45.1,29.86,NNW,341,0.0,3.0,53,0.00,,CLR,0.00,VWS V14.01,2013-08-14 08:26:00,
2013-08-14 01:30:00,63.9,47.4,29.86,North,2,2.0,5.0,55,0.00,,CLR,0.00,VWS V14.01,2013-08-14 08:30:00,
2013-08-14 01:31:00,62.6,46.7,29.87,NNW,341,1.0,3.0,56,0.00,,CLR,0.00,VWS V14.01,2013-08-14 08:31:00,
2013-08-14 01:36:00,62.6,45.7,29.87,NNW,341,3.0,3.0,54,0.00,,CLR,0.00,VWS V14.01,2013-08-14 08:36:00,
2013-08-14 01:41:00,62.9,45.0,29.87,North,5,2.0,4.0,52,0.00,,CLR,0.00,VWS V14.01,2013-08-14 08:41:00,
2013-08-14 01:45:00,63.2,47.3,29.87,North,2,0.0,3.0,56,0.00,,CLR,0.00,VWS V14.01,2013-08-14 08:45:00,
2013-08-14 01:46:00,63.2,44.8,29.87,NNW,344,2.0,4.0,51,0.00,,CLR,0.00,VWS V14.01,2013-08-14 08:46:00,
2013-08-14 01:51:00,63.4,45.0,29.87,WNW,285,4.0,5.0,51,0.00,,CLR,0.00,VWS V14.01,2013-08-14 08:51:00,
2013-08-14 01:56:00,63.2,45.8,29.87,West,274,3.0,5.0,53,0.00,,CLR,0.00,VWS V14.01,2013-08-14 08:56:00,
2013-08-14 02:00:00,62.7,48.2,29.87,North,357,0.0,2.0,59,0.00,,CLR,0.00,VWS V14.01,2013-08-14 09:00:00,
2013-08-14 02:01:00,62.9,47.0,29.86,WNW,300,4.0,5.0,56,0.00,,CLR,0.00,VWS V14.01,2013-08-14 09:01:00,
2013-08-14 02:06:00,62.4,47.0,29.86,WNW,303,2.0,6.0,57,0.00,,CLR,0.00,VWS V14.01,2013-08-14 09:06:00,
2013-08-14 02:11:00,62.0,47.5,29.86,WNW,289,2.0,6.0,59,0.00,,CLR,0.00,VWS V14.01,2013-08-14 09:11:00,
2013-08-14 02:15:00,62.3,47.8,29.86,NNW,341,2.0,3.0,59,0.00,,CLR,0.00,VWS V14.01,2013-08-14 09:15:00,
2013-08-14 02:16:00,61.3,46.4,29.86,NNW,338,0.0,6.0,58,0.00,,CLR,0.00,VWS V14.01,2013-08-14 09:16:00,
2013-08-14 02:21:00,61.2,46.3,29.86,NW,320,4.0,4.0,58,0.00,,CLR,0.00,VWS V14.01,2013-08-14 09:21:00,
2013-08-14 02:26:00,61.2,45.9,29.86,NNE,20,4.0,7.0,57,0.00,,CLR,0.00,VWS V14.01,2013-08-14 09:26:00,
2013-08-14 02:30:00,62.6,46.7,29.86,NNW,341,0.0,3.0,56,0.00,,CLR,0.00,VWS V14.01,2013-08-14 09:30:00,
2013-08-14 02:31:00,61.2,45.9,29.86,NW,313,9.0,9.0,57,0.00,,CLR,0.00,VWS V14.01,2013-08-14 09:31:00,
2013-08-14 02:36:00,61.5,45.7,29.86,WNW,292,10.0,10.0,56,0.00,,CLR,0.00,VWS V14.01,2013-08-14 09:36:00,
2013-08-14 02:41:00,61.8,44.5,29.86,West,266,3.0,15.0,53,0.00,,CLR,0.00,VWS V14.01,2013-08-14 09:41:00,
2013-08-14 02:45:00,63.2,44.8,29.86,NNW,344,0.0,4.0,51,0.00,,CLR,0.00,VWS V14.01,2013-08-14 09:45:00,
2013-08-14 02:46:00,62.4,44.6,29.86,North,357,2.0,15.0,52,0.00,,BKN006,0.00,VWS V14.01,2013-08-14 09:46:00,
2013-08-14 02:51:00,63.1,45.2,29.86,NNW,333,4.0,13.0,52,0.00,,BKN006,0.00,VWS V14.01,2013-08-14 09:51:00,
2013-08-14 02:56:00,63.2,44.8,29.86,West,271,4.0,13.0,51,0.00,,BKN006,0.00,VWS V14.01,2013-08-14 09:56:00,
2013-08-14 03:00:00,62.9,47.0,29.86,WNW,301,0.0,5.0,56,0.00,,CLR,0.00,VWS V14.01,2013-08-14 10:00:00,
2013-08-14 03:01:00,63.4,45.0,29.86,NW,307,4.0,13.0,51,0.00,,OVC004,0.00,VWS V14.01,2013-08-14 10:01:00,
2013-08-14 03:13:00,63.1,45.2,29.86,NNW,329,4.0,4.0,52,0.00,,OVC004,0.00,VWS V14.01,2013-08-14 10:13:00,
2013-08-14 03:15:00,61.3,46.4,29.86,NNW,339,0.0,6.0,58,0.00,,CLR,0.00,VWS V14.01,2013-08-14 10:15:00,
2013-08-14 03:18:00,62.9,45.0,29.86,North,349,4.0,4.0,52,0.00,,BKN006,0.00,VWS V14.01,2013-08-14 10:18:00,
2013-08-14 03:23:00,62.7,45.3,29.86,NNW,341,5.0,6.0,53,0.00,,BKN006,0.00,VWS V14.01,2013-08-14 10:23:00,
2013-08-14 03:28:00,62.6,45.2,29.86,North,6,2.0,9.0,53,0.00,,BKN006,0.00,VWS V14.01,2013-08-14 10:28:00,
2013-08-14 03:30:00,61.2,45.9,29.86,North,352,3.0,9.0,57,0.00,,CLR,0.00,VWS V14.01,2013-08-14 10:30:00,
2013-08-14 03:33:00,62.4,45.1,29.86,WSW,257,3.0,7.0,53,0.00,,OVC004,0.00,VWS V14.01,2013-08-14 10:33:00,
2013-08-14 03:38:00,62.4,45.1,29.86,NW,318,0.0,9.0,53,0.00,,OVC004,0.00,VWS V14.01,2013-08-14 10:38:00,
2013-08-14 03:43:00,62.4,45.1,29.86,NNE,15,1.0,9.0,53,0.00,,OVC004,0.00,VWS V14.01,2013-08-14 10:43:00,
2013-08-14 03:45:00,62.6,44.8,29.86,West,277,5.0,15.0,52,0.00,,CLR,0.00,VWS V14.01,2013-08-14 10:45:00,
2013-08-14 03:48:00,62.1,44.8,29.86,West,281,2.0,11.0,53,0.00,,,0.00,VWS V14.01,2013-08-14 10:48:00,
2013-08-14 03:53:00,62.1,44.8,29.86,NW,321,11.0,11.0,53,0.00,,,0.00,VWS V14.01,2013-08-14 10:53:00,
2013-08-14 03:58:00,62.1,44.8,29.86,WNW,303,3.0,11.0,53,0.00,,,0.00,VWS V14.01,2013-08-14 10:58:00,
2013-08-14 04:00:00,63.4,45.0,29.86,NNW,337,2.0,13.0,51,0.00,,CLR,0.00,VWS V14.01,2013-08-14 11:00:00,
2013-08-14 04:03:00,62.0,44.7,29.86,WNW,294,4.0,4.0,53,0.00,,,0.00,VWS V14.01,2013-08-14 11:03:00,
2013-08-14 04:08:00,62.0,44.7,29.86,NW,311,4.0,9.0,53,0.00,,,0.00,VWS V14.01,2013-08-14 11:08:00,
2013-08-14 04:13:00,61.8,44.5,29.86,NW,317,4.0,9.0,53,0.00,,,0.00,VWS V14.01,2013-08-14 11:13:00,
2013-08-14 04:15:00,62.9,45.0,29.86,West,279,0.0,5.0,52,0.00,,CLR,0.00,VWS V14.01,2013-08-14 11:15:00,
2013-08-14 04:18:00,61.6,44.8,29.86,NNW,344,3.0,3.0,54,0.00,,,0.00,VWS V14.01,2013-08-14 11:18:00,
2013-08-14 04:23:00,61.5,44.7,29.86,NNW,339,0.0,6.0,54,0.00,,,0.00,VWS V14.01,2013-08-14 11:23:00,
2013-08-14 04:28:00,61.3,44.5,29.86,WNW,291,0.0,6.0,54,0.00,,,0.00,VWS V14.01,2013-08-14 11:28:00,
2013-08-14 04:30:00,62.4,45.1,29.86,NNE,15,1.0,9.0,53,0.00,,CLR,0.00,VWS V14.01,2013-08-14 11:30:00,
2013-08-14 04:33:00,61.2,44.4,29.86,NNW,346,0.0,3.0,54,0.00,,,0.00,VWS V14.01,2013-08-14 11:33:00,
2013-08-14 04:38:00,61.2,44.4,29.86,NNW,346,0.0,3.0,54,0.00,,,0.00,VWS V14.01,2013-08-14 11:38:00,
2013-08-14 04:43:00,61.3,44.5,29.86,North,349,0.0,3.0,54,0.00,,,0.00,VWS V14.01,2013-08-14 11:43:00,
2013-08-14 04:48:00,61.3,44.0,29.86,North,354,1.0,3.0,53,0.00,,,0.00,VWS V14.01,2013-08-14 11:48:00,
2013-08-14 04:53:00,61.5,43.7,29.86,NNW,348,1.0,4.0,52,0.00,,,0.00,VWS V14.01,2013-08-14 11:53:00,
2013-08-14 04:58:00,61.6,43.8,29.86,NNW,348,0.0,4.0,52,0.00,,,0.00,VWS V14.01,2013-08-14 11:58:00,
2013-08-14 05:00:00,62.0,44.7,29.86,NW,314,1.0,11.0,53,0.00,,CLR,0.00,VWS V14.01,2013-08-14 12:00:00,
2013-08-14 05:03:00,61.5,44.7,29.86,NNW,348,0.0,1.0,54,0.00,,,0.00,VWS V14.01,2013-08-14 12:03:00,
2013-08-14 05:08:00,61.2,43.5,29.86,North,349,0.0,5.0,52,0.00,,,0.00,VWS V14.01,2013-08-14 12:08:00,
2013-08-14 05:13:00,61.2,44.0,29.86,North,349,0.0,5.0,53,0.00,,,0.00,VWS V14.01,2013-08-14 12:13:00,
2013-08-14 05:15:00,61.6,44.8,29.86,WNW,290,3.0,9.0,54,0.00,,CLR,0.00,VWS V14.01,2013-08-14 12:15:00,
2013-08-14 05:18:00,60.9,45.1,29.87,North,349,0.0,1.0,56,0.00,,,0.00,VWS V14.01,2013-08-14 12:18:00,
2013-08-14 05:23:00,60.1,45.3,29.87,North,357,0.0,2.0,58,0.00,,,0.00,VWS V14.01,2013-08-14 12:23:00,
2013-08-14 05:28:00,59.2,46.2,29.87,ESE,102,1.0,2.0,62,0.00,,,0.00,VWS V14.01,2013-08-14 12:28:00,
2013-08-14 05:30:00,61.3,44.5,29.86,NNW,333,0.0,6.0,54,0.00,,CLR,0.00,VWS V14.01,2013-08-14 12:30:00,
2013-08-14 05:33:00,58.7,46.6,29.87,ESE,102,1.0,2.0,64,0.00,,,0.00,VWS V14.01,2013-08-14 12:33:00,
2013-08-14 05:38:00,58.3,46.2,29.87,East,89,2.0,2.0,64,0.00,,,0.00,VWS V14.01,2013-08-14 12:38:00,
2013-08-14 05:43:00,58.1,45.6,29.87,East,89,0.0,2.0,63,0.00,,,0.00,VWS V14.01,2013-08-14 12:43:00,
2013-08-14 05:45:00,61.3,44.0,29.86,North,349,2.0,3.0,53,0.00,,CLR,0.00,VWS V14.01,2013-08-14 12:45:00,
2013-08-14 05:48:00,58.3,45.8,29.87,East,89,0.0,0.0,63,0.00,,,0.00,VWS V14.01,2013-08-14 12:48:00,
2013-08-14 05:53:00,58.3,45.8,29.87,East,89,0.0,2.0,63,0.00,,,0.00,VWS V14.01,2013-08-14 12:53:00,
2013-08-14 05:58:00,58.3,46.2,29.87,East,89,0.0,2.0,64,0.00,,,0.00,VWS V14.01,2013-08-14 12:58:00,
2013-08-14 06:00:00,61.6,44.3,29.86,NNW,348,1.0,4.0,53,0.00,,CLR,0.00,VWS V14.01,2013-08-14 13:00:00,
2013-08-14 06:03:00,58.1,46.0,29.87,East,89,0.0,0.0,64,0.00,,,0.00,VWS V14.01,2013-08-14 13:03:00,
2013-08-14 06:08:00,58.3,46.6,29.87,East,89,0.0,0.0,65,0.00,,,0.00,VWS V14.01,2013-08-14 13:08:00,
2013-08-14 06:13:00,58.4,46.3,29.87,East,89,0.0,0.0,64,0.00,,,0.00,VWS V14.01,2013-08-14 13:13:00,
2013-08-14 06:15:00,60.9,44.6,29.87,North,349,1.0,5.0,55,0.00,,CLR,0.00,VWS V14.01,2013-08-14 13:15:00,
2013-08-14 06:18:00,58.4,45.9,29.88,East,89,1.0,1.0,63,0.00,,,0.00,VWS V14.01,2013-08-14 13:18:00,
2013-08-14 06:23:00,58.4,45.9,29.88,East,89,2.0,2.0,63,0.00,,,0.00,VWS V14.01,2013-08-14 13:23:00,
2013-08-14 06:28:00,58.3,45.3,29.88,WNW,291,2.0,3.0,62,0.00,,,0.00,VWS V14.01,2013-08-14 13:28:00,
2013-08-14 06:30:00,58.7,46.6,29.87,ESE,102,2.0,3.0,64,0.00,,CLR,0.00,VWS V14.01,2013-08-14 13:30:00,
2013-08-14 06:33:00,58.3,45.3,29.88,WNW,291,1.0,4.0,62,0.00,,,0.00,VWS V14.01,2013-08-14 13:33:00,
2013-08-14 06:38:00,58.3,45.3,29.88,WNW,291,3.0,4.0,62,0.00,,,0.00,VWS V14.01,2013-08-14 13:38:00,
2013-08-14 06:43:00,58.3,45.3,29.88,WNW,291,3.0,4.0,62,0.00,,,0.00,VWS V14.01,2013-08-14 13:43:00,
2013-08-14 06:45:00,58.1,45.6,29.87,East,89,0.0,2.0,63,0.00,,CLR,0.00,VWS V14.01,2013-08-14 13:45:00,
2013-08-14 06:48:00,58.3,45.3,29.88,West,275,3.0,4.0,62,0.00,,,0.00,VWS V14.01,2013-08-14 13:48:00,
2013-08-14 06:53:00,58.4,45.0,29.88,West,275,3.0,5.0,61,0.00,,,0.00,VWS V14.01,2013-08-14 13:53:00,
2013-08-14 06:58:00,58.7,45.3,29.88,West,276,3.0,5.0,61,0.00,,,0.00,VWS V14.01,2013-08-14 13:58:00,
2013-08-14 07:00:00,58.1,46.0,29.87,East,89,0.0,2.0,64,0.00,,CLR,0.00,VWS V14.01,2013-08-14 14:00:00,
2013-08-14 07:03:00,58.9,45.5,29.88,West,276,2.0,3.0,61,0.00,,,0.00,VWS V14.01,2013-08-14 14:03:00,
2013-08-14 07:08:00,59.2,45.3,29.88,West,276,0.0,3.0,60,0.00,,,0.00,VWS V14.01,2013-08-14 14:08:00,
2013-08-14 07:13:00,59.6,45.7,29.88,West,276,0.0,3.0,60,0.00,,,0.00,VWS V14.01,2013-08-14 14:13:00,
2013-08-14 07:15:00,58.4,45.9,29.88,East,89,0.0,0.0,63,0.00,,CLR,0.00,VWS V14.01,2013-08-14 14:15:00,
2013-08-14 07:18:00,60.1,45.7,29.89,West,276,0.0,0.0,59,0.00,,,0.00,VWS V14.01,2013-08-14 14:18:00,
2013-08-14 07:23:00,60.7,45.4,29.89,West,275,0.0,0.0,57,0.00,,,0.00,VWS V14.01,2013-08-14 14:23:00,
2013-08-14 07:28:00,61.8,47.3,29.89,West,275,0.0,0.0,59,0.00,,,0.00,VWS V14.01,2013-08-14 14:28:00,
2013-08-14 07:30:00,58.3,45.3,29.88,WNW,291,4.0,4.0,62,0.00,,CLR,0.00,VWS V14.01,2013-08-14 14:30:00,
2013-08-14 07:33:00,62.6,46.2,29.89,West,276,0.0,0.0,55,0.00,,,0.00,VWS V14.01,2013-08-14 14:33:00,
2013-08-14 07:38:00,63.9,48.4,29.89,West,276,0.0,1.0,57,0.00,,,0.00,VWS V14.01,2013-08-14 14:38:00,
2013-08-14 07:43:00,64.8,48.3,29.89,West,275,0.0,1.0,55,0.00,,,0.00,VWS V14.01,2013-08-14 14:43:00,
2013-08-14 07:45:00,58.3,45.3,29.88,WNW,282,4.0,5.0,62,0.00,,CLR,0.00,VWS V14.01,2013-08-14 14:45:00,
2013-08-14 07:48:00,65.6,48.5,29.89,West,276,0.0,0.0,54,0.00,,,0.00,VWS V14.01,2013-08-14 14:48:00,
2013-08-14 07:53:00,66.6,49.5,29.89,West,275,0.0,0.0,54,0.00,,,0.00,VWS V14.01,2013-08-14 14:53:00,
2013-08-14 07:58:00,67.1,49.9,29.89,NE,39,0.0,1.0,54,0.00,,,0.00,VWS V14.01,2013-08-14 14:58:00,
2013-08-14 08:00:00,58.9,45.5,29.88,West,276,3.0,5.0,61,0.00,,CLR,0.00,VWS V14.01,2013-08-14 15:00:00,
2013-08-14 08:03:00,67.6,49.9,29.89,NE,39,1.0,1.0,53,0.00,,,0.00,VWS V14.01,2013-08-14 15:03:00,
2013-08-14 08:08:00,68.3,50.0,29.89,NE,42,2.0,2.0,52,0.00,,,0.00,VWS V14.01,2013-08-14 15:08:00,
2013-08-14 08:13:00,68.6,49.2,29.89,NE,42,0.0,2.0,50,0.00,,,0.00,VWS V14.01,2013-08-14 15:13:00,
2013-08-14 08:15:00,59.9,45.5,29.89,West,276,0.0,3.0,59,0.00,,CLR,0.00,VWS V14.01,2013-08-14 15:15:00,
2013-08-14 08:18:00,68.9,47.9,29.89,NW,318,1.0,1.0,47,0.00,,,0.00,VWS V14.01,2013-08-14 15:18:00,
2013-08-14 08:23:00,68.9,46.7,29.89,NNW,339,1.0,5.0,45,0.00,,,0.00,VWS V14.01,2013-08-14 15:23:00,
2013-08-14 08:28:00,68.9,47.3,29.89,West,272,3.0,6.0,46,0.00,,,0.00,VWS V14.01,2013-08-14 15:28:00,
2013-08-14 08:30:00,62.4,46.5,29.89,West,275,0.0,0.0,56,0.00,,CLR,0.00,VWS V14.01,2013-08-14 15:30:00,
2013-08-14 08:33:00,68.4,45.7,29.89,WSW,254,2.0,5.0,44,0.00,,,0.00,VWS V14.01,2013-08-14 15:33:00,
2013-08-14 08:38:00,67.8,46.9,29.89,West,278,3.0,9.0,47,0.00,,,0.00,VWS V14.01,2013-08-14 15:38:00,
2013-08-14 08:43:00,67.4,45.9,29.89,WNW,286,1.0,9.0,46,0.00,,,0.00,VWS V14.01,2013-08-14 15:43:00,
2013-08-14 08:45:00,65.5,48.4,29.89,West,276,0.0,1.0,54,0.00,,CLR,0.00,VWS V14.01,2013-08-14 15:45:00,
2013-08-14 08:48:00,67.6,46.7,29.90,NW,318,4.0,5.0,47,0.00,,,0.00,VWS V14.01,2013-08-14 15:48:00,
2013-08-14 08:54:00,67.9,46.4,29.90,SW,233,3.0,8.0,46,0.00,,,0.00,VWS V14.01,2013-08-14 15:54:00,
2013-08-14 08:59:00,68.3,46.7,29.90,SW,225,1.0,8.0,46,0.00,,,0.00,VWS V14.01,2013-08-14 15:59:00,
2013-08-14 09:00:00,67.4,50.2,29.89,NE,39,0.0,2.0,54,0.00,,CLR,0.00,VWS V14.01,2013-08-14 16:00:00,
2013-08-14 09:04:00,68.8,47.2,29.90,NW,311,3.0,5.0,46,0.00,,,0.00,VWS V14.01,2013-08-14 16:04:00,
2013-08-14 09:09:00,69.1,47.5,29.90,NNW,331,2.0,5.0,46,0.00,,,0.00,VWS V14.01,2013-08-14 16:09:00,
2013-08-14 09:14:00,69.6,47.3,29.90,NNW,328,3.0,5.0,45,0.00,,,0.00,VWS V14.01,2013-08-14 16:14:00,
2013-08-14 09:15:00,68.9,47.9,29.89,NE,42,0.0,2.0,47,0.00,,CLR,0.00,VWS V14.01,2013-08-14 16:15:00,
2013-08-14 09:19:00,70.3,47.4,29.90,NW,311,0.0,1.0,44,0.00,,,0.00,VWS V14.01,2013-08-14 16:19:00,
2013-08-14 09:24:00,70.4,52.5,29.90,SSE,164,1.0,1.0,53,0.00,,,0.00,VWS V14.01,2013-08-14 16:24:00,
2013-08-14 09:29:00,71.1,48.7,29.90,WNW,289,0.0,5.0,45,0.00,,,0.00,VWS V14.01,2013-08-14 16:29:00,
2013-08-14 09:30:00,68.6,45.8,29.89,West,273,4.0,7.0,44,0.00,,CLR,0.00,VWS V14.01,2013-08-14 16:30:00,
2013-08-14 09:34:00,71.3,52.3,29.90,SE,125,0.0,2.0,51,0.00,,,0.00,VWS V14.01,2013-08-14 16:34:00,
2013-08-14 09:39:00,71.3,50.6,29.90,WSW,244,2.0,2.0,48,0.00,,,0.00,VWS V14.01,2013-08-14 16:39:00,
2013-08-14 09:44:00,72.0,51.8,29.90,SE,139,0.0,2.0,49,0.00,,,0.00,VWS V14.01,2013-08-14 16:44:00,
2013-08-14 09:45:00,67.4,45.9,29.89,NW,322,0.0,9.0,46,0.00,,CLR,0.00,VWS V14.01,2013-08-14 16:45:00,
2013-08-14 09:49:00,72.0,52.4,29.90,South,176,0.0,2.0,50,0.00,,,0.00,VWS V14.01,2013-08-14 16:49:00,
2013-08-14 09:55:00,72.0,52.9,29.90,SSE,159,0.0,2.0,51,0.00,,,0.00,VWS V14.01,2013-08-14 16:55:00,
2013-08-14 10:00:00,72.5,52.8,29.90,SE,124,3.0,3.0,50,0.00,,,0.00,VWS V14.01,2013-08-14 17:00:00,
2013-08-14 10:05:00,72.8,52.0,29.90,South,187,0.0,3.0,48,0.00,,SCT004,0.00,VWS V14.01,2013-08-14 17:05:00,
2013-08-14 10:10:00,73.2,52.9,29.90,SSW,194,1.0,3.0,49,0.00,,SCT004,0.00,VWS V14.01,2013-08-14 17:10:00,
2013-08-14 10:15:00,73.2,51.2,29.90,SSW,196,1.0,3.0,46,0.00,,,0.00,VWS V14.01,2013-08-14 17:15:00,
2013-08-14 10:20:00,73.5,52.1,29.91,SSW,206,2.0,2.0,47,0.00,,,0.00,VWS V14.01,2013-08-14 17:20:00,
2013-08-14 10:25:00,74.0,52.5,29.91,SSW,195,0.0,2.0,47,0.00,,,0.00,VWS V14.01,2013-08-14 17:25:00,
2013-08-14 10:30:00,74.2,52.1,29.91,SW,218,2.0,4.0,46,0.00,,SCT004,0.00,VWS V14.01,2013-08-14 17:30:00,
2013-08-14 10:35:00,74.4,52.9,29.90,ESE,118,0.0,3.0,47,0.00,,SCT004,0.00,VWS V14.01,2013-08-14 17:35:00,
2013-08-14 10:40:00,75.1,52.3,29.90,SSE,168,1.0,4.0,45,0.00,,SCT004,0.00,VWS V14.01,2013-08-14 17:40:00,
2013-08-14 10:45:00,75.8,54.7,29.90,South,181,0.0,4.0,48,0.00,,CLR,0.00,VWS V14.01,2013-08-14 17:45:00,
2013-08-14 10:50:00,76.5,54.2,29.90,East,93,0.0,5.0,46,0.00,,CLR,0.00,VWS V14.01,2013-08-14 17:50:00,
2013-08-14 10:55:00,76.3,54.0,29.90,South,189,0.0,5.0,46,0.00,,CLR,0.00,VWS V14.01,2013-08-14 17:55:00,
2013-08-14 11:00:00,76.1,54.4,29.90,ESE,104,2.0,5.0,47,0.00,,CLR,0.00,VWS V14.01,2013-08-14 18:00:00,
2013-08-14 11:05:00,76.3,54.6,29.90,ESE,114,3.0,3.0,47,0.00,,CLR,0.00,VWS V14.01,2013-08-14 18:05:00,
2013-08-14 11:10:00,76.8,55.1,29.90,South,179,0.0,4.0,47,0.00,,CLR,0.00,VWS V14.01,2013-08-14 18:10:00,
2013-08-14 11:15:00,77.4,55.6,29.90,SSE,164,2.0,4.0,47,0.00,,CLR,0.00,VWS V14.01,2013-08-14 18:15:00,
2013-08-14 11:21:00,77.7,55.3,29.90,South,174,1.0,2.0,46,0.00,,CLR,0.00,VWS V14.01,2013-08-14 18:21:00,
2013-08-14 11:26:00,77.6,55.8,29.90,South,170,0.0,3.0,47,0.00,,CLR,0.00,VWS V14.01,2013-08-14 18:26:00,
2013-08-14 11:30:00,74.2,52.1,29.90,SSW,198,3.0,4.0,46,0.00,,CLR,0.00,VWS V14.01,2013-08-14 18:30:00,
2013-08-14 11:31:00,77.9,55.5,29.90,SSE,155,2.0,3.0,46,0.00,,CLR,0.00,VWS V14.01,2013-08-14 18:31:00,
2013-08-14 11:36:00,78.6,56.7,29.89,ESE,106,0.0,4.0,47,0.00,,CLR,0.00,VWS V14.01,2013-08-14 18:36:00,
2013-08-14 11:41:00,79.4,56.8,29.89,ESE,114,1.0,4.0,46,0.00,,CLR,0.00,VWS V14.01,2013-08-14 18:41:00,
2013-08-14 11:45:00,76.0,54.3,29.90,SE,131,0.0,4.0,47,0.00,,CLR,0.00,VWS V14.01,2013-08-14 18:45:00,
2013-08-14 11:46:00,79.8,57.2,29.89,ESE,111,0.0,4.0,46,0.00,,CLR,0.00,VWS V14.01,2013-08-14 18:46:00,
2013-08-14 11:52:00,80.9,57.0,29.89,ESE,114,1.0,3.0,44,0.00,,CLR,0.00,VWS V14.01,2013-08-14 18:52:00,
2013-08-14 11:57:00,80.9,57.0,29.89,SSE,166,0.0,7.0,44,0.00,,CLR,0.00,VWS V14.01,2013-08-14 18:57:00,
2013-08-14 12:00:00,76.3,55.2,29.90,South,191,1.0,5.0,48,0.00,,CLR,0.00,VWS V14.01,2013-08-14 19:00:00,
2013-08-14 12:02:00,80.5,57.2,29.89,South,176,3.0,7.0,45,0.00,,CLR,0.00,VWS V14.01,2013-08-14 19:02:00,
2013-08-14 12:07:00,80.3,57.0,29.89,ESE,110,2.0,4.0,45,0.00,,CLR,0.00,VWS V14.01,2013-08-14 19:07:00,
2013-08-14 12:12:00,80.9,57.0,29.89,South,170,0.0,4.0,44,0.00,,CLR,0.00,VWS V14.01,2013-08-14 19:12:00,
2013-08-14 12:15:00,77.4,55.0,29.90,SE,146,0.0,4.0,46,0.00,,CLR,0.00,VWS V14.01,2013-08-14 19:15:00,
2013-08-14 12:17:00,80.7,57.4,29.88,ESE,120,0.0,1.0,45,0.00,,CLR,0.00,VWS V14.01,2013-08-14 19:17:00,
2013-08-14 12:22:00,81.6,57.6,29.88,SE,135,0.0,4.0,44,0.00,,CLR,0.00,VWS V14.01,2013-08-14 19:22:00,
2013-08-14 12:27:00,82.2,56.8,29.88,SSW,198,1.0,4.0,42,0.00,,CLR,0.00,VWS V14.01,2013-08-14 19:27:00,
2013-08-14 12:30:00,78.1,55.7,29.89,ESE,102,0.0,3.0,46,0.00,,CLR,0.00,VWS V14.01,2013-08-14 19:30:00,
2013-08-14 12:32:00,82.4,55.7,29.88,SSW,194,0.0,0.0,40,0.00,,CLR,0.00,VWS V14.01,2013-08-14 19:32:00,
2013-08-14 12:37:00,82.4,55.7,29.88,SSE,157,3.0,3.0,40,0.00,,CLR,0.00,VWS V14.01,2013-08-14 19:37:00,
2013-08-14 12:42:00,82.8,56.0,29.88,South,179,0.0,3.0,40,0.00,,CLR,0.00,VWS V14.01,2013-08-14 19:42:00,
2013-08-14 12:45:00,79.8,57.2,29.89,ESE,111,0.0,4.0,46,0.00,,CLR,0.00,VWS V14.01,2013-08-14 19:45:00,
2013-08-14 12:47:00,82.8,56.0,29.87,South,176,0.0,2.0,40,0.00,,CLR,0.00,VWS V14.01,2013-08-14 19:47:00,
2013-08-14 12:52:00,82.8,54.6,29.87,South,177,5.0,5.0,38,0.00,,CLR,0.00,VWS V14.01,2013-08-14 19:52:00,
2013-08-14 12:58:00,81.8,55.1,29.87,South,170,3.0,6.0,40,0.00,,CLR,0.00,VWS V14.01,2013-08-14 19:58:00,
2013-08-14 13:00:00,80.5,56.6,29.89,South,189,3.0,7.0,44,0.00,,CLR,0.00,VWS V14.01,2013-08-14 20:00:00,
2013-08-14 13:03:00,82.4,55.7,29.87,SSE,152,0.0,2.0,40,0.00,,CLR,0.00,VWS V14.01,2013-08-14 20:03:00,
2013-08-14 13:08:00,83.6,56.0,29.87,South,177,0.0,4.0,39,0.00,,CLR,0.00,VWS V14.01,2013-08-14 20:08:00,
2013-08-14 13:13:00,84.3,55.2,29.87,East,89,0.0,4.0,37,0.00,,CLR,0.00,VWS V14.01,2013-08-14 20:13:00,
2013-08-14 13:15:00,80.7,57.4,29.88,ESE,120,1.0,4.0,45,0.00,,CLR,0.00,VWS V14.01,2013-08-14 20:15:00,
2013-08-14 13:18:00,85.3,55.3,29.86,ENE,62,1.0,3.0,36,0.00,,CLR,0.00,VWS V14.01,2013-08-14 20:18:00,
2013-08-14 13:23:00,86.1,55.3,29.86,SE,135,2.0,5.0,35,0.00,,CLR,0.00,VWS V14.01,2013-08-14 20:23:00,
2013-08-14 13:28:00,86.1,55.3,29.86,SSE,168,1.0,5.0,35,0.00,,CLR,0.00,VWS V14.01,2013-08-14 20:28:00,
2013-08-14 13:30:00,82.4,55.7,29.88,SSE,166,0.0,4.0,40,0.00,,CLR,0.00,VWS V14.01,2013-08-14 20:30:00,
2013-08-14 13:33:00,85.5,54.8,29.86,SSE,152,4.0,4.0,35,0.00,,CLR,0.00,VWS V14.01,2013-08-14 20:33:00,
2013-08-14 13:38:00,86.3,56.2,29.86,SSE,166,3.0,5.0,36,0.00,,CLR,0.00,VWS V14.01,2013-08-14 20:38:00,
2013-08-14 13:43:00,85.5,55.5,29.86,SSW,202,0.0,6.0,36,0.00,,CLR,0.00,VWS V14.01,2013-08-14 20:43:00,
2013-08-14 13:45:00,82.8,56.0,29.87,South,173,0.0,4.0,40,0.00,,CLR,0.00,VWS V14.01,2013-08-14 20:45:00,
2013-08-14 13:48:00,85.5,54.8,29.86,South,188,3.0,6.0,35,0.00,,CLR,0.00,VWS V14.01,2013-08-14 20:48:00,
2013-08-14 13:53:00,85.7,55.7,29.86,SE,143,0.0,6.0,36,0.00,,CLR,0.00,VWS V14.01,2013-08-14 20:53:00,
2013-08-14 13:58:00,86.3,54.7,29.86,South,178,2.0,6.0,34,0.00,,CLR,0.00,VWS V14.01,2013-08-14 20:58:00,
2013-08-14 14:00:00,82.2,55.5,29.87,SE,144,2.0,6.0,40,0.00,,CLR,0.00,VWS V14.01,2013-08-14 21:00:00,
2013-08-14 14:03:00,87.4,56.4,29.85,SSE,149,1.0,1.0,35,0.00,,CLR,0.00,VWS V14.01,2013-08-14 21:03:00,
2013-08-14 14:08:00,88.2,54.7,29.85,South,189,2.0,3.0,32,0.00,,CLR,0.00,VWS V14.01,2013-08-14 21:08:00,
2013-08-14 14:13:00,87.4,55.6,29.85,SSW,205,0.0,5.0,34,0.00,,CLR,0.00,VWS V14.01,2013-08-14 21:13:00,
2013-08-14 14:15:00,84.9,55.8,29.86,SE,125,0.0,4.0,37,0.00,,CLR,0.00,VWS V14.01,2013-08-14 21:15:00,
2013-08-14 14:18:00,88.0,55.3,29.85,SSE,167,3.0,3.0,33,0.00,,CLR,0.00,VWS V14.01,2013-08-14 21:18:00,
2013-08-14 14:23:00,87.4,55.6,29.85,SSE,160,0.0,4.0,34,0.00,,CLR,0.00,VWS V14.01,2013-08-14 21:23:00,
2013-08-14 14:28:00,88.4,55.7,29.85,SW,228,2.0,4.0,33,0.00,,CLR,0.00,VWS V14.01,2013-08-14 21:28:00,
2013-08-14 14:30:00,85.7,54.9,29.86,SSE,166,0.0,5.0,35,0.00,,CLR,0.00,VWS V14.01,2013-08-14 21:30:00,
2013-08-14 14:33:00,89.9,55.2,29.84,SSW,207,1.0,3.0,31,0.00,,CLR,0.00,VWS V14.01,2013-08-14 21:33:00,
2013-08-14 14:38:00,90.1,50.6,29.84,WNW,289,8.0,9.0,26,0.00,,CLR,0.00,VWS V14.01,2013-08-14 21:38:00,
2013-08-14 14:43:00,89.9,47.2,29.84,SW,231,1.0,9.0,23,0.00,,CLR,0.00,VWS V14.01,2013-08-14 21:43:00,
2013-08-14 14:45:00,85.5,54.8,29.86,South,189,0.0,6.0,35,0.00,,CLR,0.00,VWS V14.01,2013-08-14 21:45:00,
2013-08-14 14:48:00,90.3,47.5,29.84,WSW,258,5.0,6.0,23,0.00,,CLR,0.00,VWS V14.01,2013-08-14 21:48:00,
2013-08-14 14:53:00,90.7,46.7,29.84,West,274,1.0,11.0,22,0.00,,CLR,0.00,VWS V14.01,2013-08-14 21:53:00,
2013-08-14 14:58:00,91.0,46.9,29.84,West,268,6.0,12.0,22,0.00,,CLR,0.00,VWS V14.01,2013-08-14 21:58:00,
2013-08-14 15:00:00,87.0,56.1,29.86,SW,236,0.0,6.0,35,0.00,,CLR,0.00,VWS V14.01,2013-08-14 22:00:00,
2013-08-14 15:03:00,91.4,47.2,29.84,NW,322,3.0,5.0,22,0.00,,CLR,0.00,VWS V14.01,2013-08-14 22:03:00,
2013-08-14 15:08:00,91.2,44.6,29.84,SW,216,3.0,7.0,20,0.00,,CLR,0.00,VWS V14.01,2013-08-14 22:08:00,
2013-08-14 15:13:00,91.0,44.4,29.84,WSW,255,4.0,12.0,20,0.00,,CLR,0.00,VWS V14.01,2013-08-14 22:13:00,
2013-08-14 15:15:00,87.8,55.2,29.85,SSE,167,1.0,5.0,33,0.00,,CLR,0.00,VWS V14.01,2013-08-14 22:15:00,
2013-08-14 15:18:00,90.7,44.2,29.84,NNW,327,1.0,10.0,20,0.00,,CLR,0.00,VWS V14.01,2013-08-14 22:18:00,
2013-08-14 15:23:00,90.1,43.7,29.84,West,272,13.0,13.0,20,0.00,,CLR,0.00,VWS V14.01,2013-08-14 22:23:00,
2013-08-14 15:28:00,89.3,43.0,29.84,WSW,240,5.0,15.0,20,0.00,,CLR,0.00,VWS V14.01,2013-08-14 22:28:00,
2013-08-14 15:30:00,89.7,53.2,29.84,WNW,285,1.0,9.0,29,0.00,,CLR,0.00,VWS V14.01,2013-08-14 22:30:00,
2013-08-14 15:33:00,88.4,43.5,29.84,WNW,295,3.0,14.0,21,0.00,,CLR,0.00,VWS V14.01,2013-08-14 22:33:00,
2013-08-14 15:38:00,88.8,43.9,29.84,WSW,249,3.0,15.0,21,0.00,,CLR,0.00,VWS V14.01,2013-08-14 22:38:00,
2013-08-14 15:43:00,89.0,42.8,29.84,West,264,6.0,15.0,20,0.00,,CLR,0.00,VWS V14.01,2013-08-14 22:43:00,
2013-08-14 15:48:00,88.8,42.6,29.84,WNW,287,11.0,11.0,20,0.00,,CLR,0.00,VWS V14.01,2013-08-14 22:48:00,
2013-08-14 15:53:00,88.8,42.6,29.84,North,350,1.0,12.0,20,0.00,,CLR,0.00,VWS V14.01,2013-08-14 22:53:00,
2013-08-14 15:58:00,88.2,42.1,29.84,WNW,295,7.0,12.0,20,0.00,,CLR,0.00,VWS V14.01,2013-08-14 22:58:00,
2013-08-14 16:00:00,91.2,45.8,29.84,NW,309,1.0,12.0,21,0.00,,CLR,0.00,VWS V14.01,2013-08-14 23:00:00,
2013-08-14 16:04:00,88.0,43.2,29.84,West,260,6.0,11.0,21,0.00,,CLR,0.00,VWS V14.01,2013-08-14 23:04:00,
2013-08-14 16:09:00,88.0,43.2,29.84,South,189,0.0,13.0,21,0.00,,CLR,0.00,VWS V14.01,2013-08-14 23:09:00,
2013-08-14 16:14:00,88.2,43.4,29.84,NNE,20,2.0,13.0,21,0.00,,CLR,0.00,VWS V14.01,2013-08-14 23:14:00,
2013-08-14 16:15:00,90.7,44.2,29.84,West,276,2.0,12.0,20,0.00,,CLR,0.00,VWS V14.01,2013-08-14 23:15:00,
2013-08-14 16:19:00,88.2,44.6,29.83,West,274,4.0,14.0,22,0.00,,CLR,0.00,VWS V14.01,2013-08-14 23:19:00,
2013-08-14 16:24:00,87.6,45.3,29.83,NNW,329,9.0,14.0,23,0.00,,CLR,0.00,VWS V14.01,2013-08-14 23:24:00,
2013-08-14 16:29:00,87.2,43.8,29.83,NW,315,4.0,17.0,22,0.00,,CLR,0.00,VWS V14.01,2013-08-14 23:29:00,
2013-08-14 16:30:00,88.6,41.1,29.84,WNW,285,14.0,15.0,19,0.00,,CLR,0.00,VWS V14.01,2013-08-14 23:30:00,
2013-08-14 16:34:00,86.5,44.3,29.83,WSW,247,6.0,17.0,23,0.00,,CLR,0.00,VWS V14.01,2013-08-14 23:34:00,
2013-08-14 16:39:00,86.1,44.0,29.83,WNW,286,6.0,17.0,23,0.00,,CLR,0.00,VWS V14.01,2013-08-14 23:39:00,
2013-08-14 16:44:00,85.5,45.7,29.83,North,1,4.0,17.0,25,0.00,,CLR,0.00,VWS V14.01,2013-08-14 23:44:00,
2013-08-14 16:45:00,88.8,42.6,29.84,South,186,1.0,15.0,20,0.00,,CLR,0.00,VWS V14.01,2013-08-14 23:45:00,
2013-08-14 16:49:00,85.1,45.4,29.83,North,10,3.0,13.0,25,0.00,,CLR,0.00,VWS V14.01,2013-08-14 23:49:00,
2013-08-14 16:54:00,84.9,45.2,29.83,WSW,242,8.0,15.0,25,0.00,,CLR,0.00,VWS V14.01,2013-08-14 23:54:00,
2013-08-14 16:59:00,84.5,44.9,29.83,WNW,291,11.0,15.0,25,0.00,,CLR,0.00,VWS V14.01,2013-08-14 23:59:00,
2013-08-14 17:00:00,88.2,43.4,29.84,SW,233,7.0,14.0,21,0.00,,CLR,0.00,VWS V14.01,2013-08-15 00:00:00,
2013-08-14 17:04:00,84.0,45.5,29.83,WSW,258,2.0,16.0,26,0.00,,CLR,0.00,VWS V14.01,2013-08-15 00:04:00,
2013-08-14 17:09:00,84.0,46.5,29.83,NW,316,3.0,16.0,27,0.00,,CLR,0.00,VWS V14.01,2013-08-15 00:09:00,
2013-08-14 17:14:00,83.8,47.2,29.83,NW,312,6.0,16.0,28,0.00,,CLR,0.00,VWS V14.01,2013-08-15 00:14:00,
2013-08-14 17:15:00,88.2,44.6,29.83,WSW,249,10.0,13.0,22,0.00,,CLR,0.00,VWS V14.01,2013-08-15 00:15:00,
2013-08-14 17:19:00,83.6,47.1,29.84,WNW,292,12.0,13.0,28,0.00,,CLR,0.00,VWS V14.01,2013-08-15 00:19:00,
2013-08-14 17:24:00,83.2,48.6,29.84,WNW,289,3.0,13.0,30,0.00,,CLR,0.00,VWS V14.01,2013-08-15 00:24:00,
2013-08-14 17:29:00,83.0,48.4,29.84,WSW,251,7.0,13.0,30,0.00,,CLR,0.00,VWS V14.01,2013-08-15 00:29:00,
2013-08-14 17:30:00,86.7,44.5,29.83,WNW,295,4.0,17.0,23,0.00,,CLR,0.00,VWS V14.01,2013-08-15 00:30:00,
2013-08-14 17:34:00,82.6,48.1,29.84,West,266,12.0,14.0,30,0.00,,CLR,0.00,VWS V14.01,2013-08-15 00:34:00,
2013-08-14 17:39:00,82.2,48.6,29.84,WNW,291,10.0,14.0,31,0.00,,CLR,0.00,VWS V14.01,2013-08-15 00:39:00,
2013-08-14 17:44:00,81.8,48.2,29.84,WSW,241,6.0,14.0,31,0.00,,CLR,0.00,VWS V14.01,2013-08-15 00:44:00,
2013-08-14 17:45:00,85.3,44.5,29.83,WNW,293,9.0,17.0,24,0.00,,CLR,0.00,VWS V14.01,2013-08-15 00:45:00,
2013-08-14 17:49:00,81.6,48.9,29.84,WSW,245,4.0,10.0,32,0.00,,CLR,0.00,VWS V14.01,2013-08-15 00:49:00,
2013-08-14 17:54:00,81.1,49.3,29.84,South,172,1.0,17.0,33,0.00,,CLR,0.00,VWS V14.01,2013-08-15 00:54:00,
2013-08-14 17:59:00,80.7,48.1,29.84,West,272,5.0,17.0,32,0.00,,CLR,0.00,VWS V14.01,2013-08-15 00:59:00,
2013-08-14 18:00:00,84.1,45.5,29.83,West,269,4.0,15.0,26,0.00,,CLR,0.00,VWS V14.01,2013-08-15 01:00:00,
2013-08-14 18:04:00,80.3,48.6,29.84,West,279,15.0,15.0,33,0.00,,CLR,0.00,VWS V14.01,2013-08-15 01:04:00,
2013-08-14 18:09:00,79.9,49.8,29.84,West,265,1.0,17.0,35,0.00,,CLR,0.00,VWS V14.01,2013-08-15 01:09:00,
2013-08-14 18:14:00,79.2,50.7,29.84,West,263,4.0,17.0,37,0.00,,CLR,0.00,VWS V14.01,2013-08-15 01:14:00,
2013-08-14 18:15:00,83.6,47.1,29.84,NW,308,5.0,16.0,28,0.00,,CLR,0.00,VWS V14.01,2013-08-15 01:15:00,
2013-08-14 18:19:00,78.5,52.2,29.84,WNW,286,9.0,12.0,40,0.00,,CLR,0.00,VWS V14.01,2013-08-15 01:19:00,
2013-08-14 18:24:00,77.9,53.0,29.84,WNW,285,6.0,13.0,42,0.00,,CLR,0.00,VWS V14.01,2013-08-15 01:24:00,
2013-08-14 18:29:00,77.6,54.0,29.84,West,277,9.0,15.0,44,0.00,,CLR,0.00,VWS V14.01,2013-08-15 01:29:00,
2013-08-14 18:30:00,82.8,48.2,29.84,North,10,6.0,15.0,30,0.00,,CLR,0.00,VWS V14.01,2013-08-15 01:30:00,
2013-08-14 18:34:00,77.0,54.7,29.84,NW,306,3.0,10.0,46,0.00,,CLR,0.00,VWS V14.01,2013-08-15 01:34:00,
2013-08-14 18:39:00,76.7,55.0,29.84,WSW,253,2.0,15.0,47,0.00,,CLR,0.00,VWS V14.01,2013-08-15 01:39:00,
2013-08-14 18:44:00,76.1,54.4,29.84,West,274,7.0,15.0,47,0.00,,CLR,0.00,VWS V14.01,2013-08-15 01:44:00,
2013-08-14 18:45:00,81.8,49.1,29.84,West,277,6.0,15.0,32,0.00,,CLR,0.00,VWS V14.01,2013-08-15 01:45:00,
2013-08-14 18:49:00,75.6,56.2,29.84,SSW,208,3.0,11.0,51,0.00,,CLR,0.00,VWS V14.01,2013-08-15 01:49:00,
2013-08-14 18:54:00,75.4,56.6,29.84,NW,314,4.0,11.0,52,0.00,,CLR,0.00,VWS V14.01,2013-08-15 01:54:00,
2013-08-14 18:59:00,75.1,56.3,29.84,WNW,285,6.0,11.0,52,0.00,,CLR,0.00,VWS V14.01,2013-08-15 01:59:00,
2013-08-14 19:00:00,80.5,48.8,29.84,WNW,297,4.0,17.0,33,0.00,,CLR,0.00,VWS V14.01,2013-08-15 02:00:00,
2013-08-14 19:04:00,74.9,56.6,29.84,WSW,243,2.0,6.0,53,0.00,,CLR,0.00,VWS V14.01,2013-08-15 02:04:00,
2013-08-14 19:09:00,74.6,56.9,29.84,West,272,4.0,12.0,54,0.00,,CLR,0.00,VWS V14.01,2013-08-15 02:09:00,
2013-08-14 19:14:00,74.2,57.0,29.84,WNW,293,4.0,12.0,55,0.00,,CLR,0.00,VWS V14.01,2013-08-15 02:14:00,
2013-08-14 19:15:00,78.6,51.6,29.84,SSW,206,12.0,17.0,39,0.00,,CLR,0.00,VWS V14.01,2013-08-15 02:15:00,
2013-08-14 19:19:00,73.7,57.5,29.83,West,273,5.0,7.0,57,0.00,,CLR,0.00,VWS V14.01,2013-08-15 02:19:00,
2013-08-14 19:24:00,73.3,57.7,29.83,West,280,6.0,11.0,58,0.00,,CLR,0.00,VWS V14.01,2013-08-15 02:24:00,
2013-08-14 19:29:00,73.0,57.8,29.83,West,266,9.0,11.0,59,0.00,,CLR,0.00,VWS V14.01,2013-08-15 02:29:00,
2013-08-14 19:30:00,77.4,54.4,29.84,WNW,292,6.0,15.0,45,0.00,,CLR,0.00,VWS V14.01,2013-08-15 02:30:00,
2013-08-14 19:34:00,72.5,58.3,29.84,West,278,2.0,11.0,61,0.00,,CLR,0.00,VWS V14.01,2013-08-15 02:34:00,
2013-08-14 19:39:00,72.0,58.3,29.84,WNW,293,6.0,11.0,62,0.00,,CLR,0.00,VWS V14.01,2013-08-15 02:39:00,
2013-08-14 19:44:00,71.3,58.1,29.84,West,261,3.0,11.0,63,0.00,,CLR,0.00,VWS V14.01,2013-08-15 02:44:00,
2013-08-14 19:45:00,75.8,55.8,29.84,WNW,295,10.0,15.0,50,0.00,,CLR,0.00,VWS V14.01,2013-08-15 02:45:00,
2013-08-14 19:49:00,70.9,58.1,29.84,West,280,7.0,7.0,64,0.00,,CLR,0.00,VWS V14.01,2013-08-15 02:49:00,
2013-08-14 19:54:00,70.4,58.1,29.84,WNW,283,1.0,9.0,65,0.00,,CLR,0.00,VWS V14.01,2013-08-15 02:54:00,
2013-08-14 19:59:00,69.9,58.0,29.84,NW,306,4.0,9.0,66,0.00,,CLR,0.00,VWS V14.01,2013-08-15 02:59:00,
2013-08-14 20:00:00,74.9,56.6,29.84,WNW,292,3.0,11.0,53,0.00,,CLR,0.00,VWS V14.01,2013-08-15 03:00:00,
2013-08-14 20:04:00,69.3,57.9,29.85,WNW,295,5.0,9.0,67,0.00,,CLR,0.00,VWS V14.01,2013-08-15 03:04:00,
2013-08-14 20:09:00,68.8,57.8,29.85,NNW,335,5.0,9.0,68,0.00,,CLR,0.00,VWS V14.01,2013-08-15 03:09:00,
2013-08-14 20:14:00,68.4,57.8,29.85,NW,317,2.0,9.0,69,0.00,,CLR,0.00,VWS V14.01,2013-08-15 03:14:00,
2013-08-14 20:15:00,74.0,57.3,29.83,West,272,7.0,12.0,56,0.00,,CLR,0.00,VWS V14.01,2013-08-15 03:15:00,
2013-08-14 20:19:00,67.9,58.2,29.85,WNW,292,2.0,5.0,71,0.00,,CLR,0.00,VWS V14.01,2013-08-15 03:19:00,
2013-08-14 20:24:00,67.6,58.3,29.85,NNE,25,5.0,7.0,72,0.00,,CLR,0.00,VWS V14.01,2013-08-15 03:24:00,
2013-08-14 20:29:00,67.3,58.0,29.85,NNW,327,2.0,7.0,72,0.00,,CLR,0.00,VWS V14.01,2013-08-15 03:29:00,
2013-08-14 20:30:00,72.7,58.0,29.84,SW,230,7.0,11.0,60,0.00,,CLR,0.00,VWS V14.01,2013-08-15 03:30:00,
2013-08-14 20:34:00,67.1,57.8,29.85,NE,40,2.0,4.0,72,0.00,,CLR,0.00,VWS V14.01,2013-08-15 03:34:00,
2013-08-14 20:39:00,66.8,57.9,29.85,NE,44,2.0,5.0,73,0.00,,CLR,0.00,VWS V14.01,2013-08-15 03:39:00,
2013-08-14 20:44:00,66.4,57.9,29.85,NNW,332,4.0,5.0,74,0.00,,CLR,0.00,VWS V14.01,2013-08-15 03:44:00,
2013-08-14 20:45:00,71.1,57.9,29.84,WNW,297,2.0,11.0,63,0.00,,CLR,0.00,VWS V14.01,2013-08-15 03:45:00,
2013-08-14 20:49:00,66.3,58.2,29.85,North,358,3.0,5.0,75,0.00,,CLR,0.00,VWS V14.01,2013-08-15 03:49:00,
2013-08-14 20:54:00,66.0,58.2,29.85,NNW,338,1.0,5.0,76,0.00,,CLR,0.00,VWS V14.01,2013-08-15 03:54:00,
2013-08-14 20:59:00,65.8,58.0,29.85,NNW,339,2.0,5.0,76,0.00,,CLR,0.00,VWS V14.01,2013-08-15 03:59:00,
2013-08-14 21:00:00,69.6,58.2,29.85,NW,318,3.0,9.0,67,0.00,,CLR,0.00,VWS V14.01,2013-08-15 04:00:00,
2013-08-14 21:01:00,65.8,58.0,29.85,NNW,339,0.0,5.0,76,0.00,,CLR,0.00,VWS V14.01,2013-08-15 04:01:00,
2013-08-14 21:06:00,65.5,58.5,29.85,NNE,25,5.0,5.0,78,0.00,,CLR,0.00,VWS V14.01,2013-08-15 04:06:00,
2013-08-14 21:11:00,65.3,58.3,29.85,NNW,348,1.0,6.0,78,0.00,,CLR,0.00,VWS V14.01,2013-08-15 04:11:00,
2013-08-14 21:15:00,68.1,58.0,29.85,NW,308,0.0,9.0,70,0.00,,CLR,0.00,VWS V14.01,2013-08-15 04:15:00,
2013-08-14 21:16:00,65.2,58.5,29.85,SW,235,0.0,6.0,79,0.00,,CLR,0.00,VWS V14.01,2013-08-15 04:16:00,
2013-08-14 21:21:00,65.0,58.3,29.85,West,274,0.0,7.0,79,0.00,,CLR,0.00,VWS V14.01,2013-08-15 04:21:00,
2013-08-14 21:26:00,64.8,58.5,29.85,East,94,0.0,7.0,80,0.00,,CLR,0.00,VWS V14.01,2013-08-15 04:26:00,
2013-08-14 21:30:00,67.1,57.8,29.85,NNW,333,4.0,7.0,72,0.00,,CLR,0.00,VWS V14.01,2013-08-15 04:30:00,
2013-08-14 21:31:00,64.8,58.8,29.86,NW,309,3.0,10.0,81,0.00,,CLR,0.00,VWS V14.01,2013-08-15 04:31:00,
2013-08-14 21:36:00,64.7,58.7,29.86,NNW,331,3.0,10.0,81,0.00,,CLR,0.00,VWS V14.01,2013-08-15 04:36:00,
2013-08-14 21:41:00,64.5,58.9,29.86,NW,321,4.0,12.0,82,0.00,,CLR,0.00,VWS V14.01,2013-08-15 04:41:00,
2013-08-14 21:45:00,66.3,58.2,29.85,NW,317,2.0,6.0,75,0.00,,CLR,0.00,VWS V14.01,2013-08-15 04:45:00,
2013-08-14 21:46:00,64.5,58.9,29.86,NNE,25,3.0,12.0,82,0.00,,CLR,0.00,VWS V14.01,2013-08-15 04:46:00,
2013-08-14 21:51:00,64.3,59.0,29.86,West,266,2.0,10.0,83,0.00,,CLR,0.00,VWS V14.01,2013-08-15 04:51:00,
2013-08-14 21:56:00,64.2,58.9,29.86,ENE,77,3.0,11.0,83,0.00,,CLR,0.00,VWS V14.01,2013-08-15 04:56:00,
2013-08-14 22:00:00,65.6,58.2,29.86,NW,314,2.0,5.0,77,0.00,,CLR,0.00,VWS V14.01,2013-08-15 05:00:00,
2013-08-14 22:01:00,64.0,58.7,29.87,NNW,333,11.0,11.0,83,0.00,,CLR,0.00,VWS V14.01,2013-08-15 05:01:00,
2013-08-14 22:06:00,63.7,58.8,29.87,NE,52,5.0,9.0,84,0.00,,CLR,0.00,VWS V14.01,2013-08-15 05:06:00,
2013-08-14 22:11:00,63.5,58.9,29.87,NNW,333,9.0,9.0,85,0.00,,CLR,0.00,VWS V14.01,2013-08-15 05:11:00,
2013-08-14 22:15:00,65.2,58.5,29.85,WNW,286,2.0,6.0,79,0.00,,CLR,0.00,VWS V14.01,2013-08-15 05:15:00,
2013-08-14 22:16:00,63.2,58.6,29.87,NW,320,6.0,9.0,85,0.00,,CLR,0.00,VWS V14.01,2013-08-15 05:16:00,
2013-08-14 22:21:00,63.1,58.8,29.87,NW,308,9.0,10.0,86,0.00,,CLR,0.00,VWS V14.01,2013-08-15 05:21:00,
2013-08-14 22:26:00,62.9,59.0,29.87,WNW,292,4.0,10.0,87,0.00,,CLR,0.00,VWS V14.01,2013-08-15 05:26:00,
2013-08-14 22:30:00,64.8,58.8,29.86,WNW,299,2.0,10.0,81,0.00,,CLR,0.00,VWS V14.01,2013-08-15 05:30:00,
2013-08-14 22:31:00,62.7,58.8,29.87,West,274,7.0,10.0,87,0.00,,CLR,0.00,VWS V14.01,2013-08-15 05:31:00,
2013-08-14 22:36:00,62.6,58.7,29.87,WNW,289,9.0,10.0,87,0.00,,CLR,0.00,VWS V14.01,2013-08-15 05:36:00,
2013-08-14 22:41:00,62.6,58.7,29.87,West,267,7.0,11.0,87,0.00,,CLR,0.00,VWS V14.01,2013-08-15 05:41:00,
2013-08-14 22:45:00,64.5,58.9,29.86,West,276,2.0,12.0,82,0.00,,CLR,0.00,VWS V14.01,2013-08-15 05:45:00,
2013-08-14 22:46:00,62.4,58.5,29.86,West,270,7.0,11.0,87,0.00,,CLR,0.00,VWS V14.01,2013-08-15 05:46:00,
2013-08-14 22:51:00,62.4,58.8,29.86,West,272,7.0,11.0,88,0.00,,CLR,0.00,VWS V14.01,2013-08-15 05:51:00,
2013-08-14 22:56:00,62.4,58.5,29.86,West,268,5.0,11.0,87,0.00,,CLR,0.00,VWS V14.01,2013-08-15 05:56:00,
2013-08-14 23:00:00,63.9,58.6,29.87,NNE,15,5.0,11.0,83,0.00,,CLR,0.00,VWS V14.01,2013-08-15 06:00:00,
2013-08-14 23:01:00,62.4,58.5,29.86,West,262,4.0,11.0,87,0.00,,CLR,0.00,VWS V14.01,2013-08-15 06:01:00,
2013-08-14 23:06:00,62.3,58.4,29.86,West,277,10.0,10.0,87,0.00,,CLR,0.00,VWS V14.01,2013-08-15 06:06:00,
2013-08-14 23:11:00,62.3,58.7,29.86,NW,307,10.0,10.0,88,0.00,,CLR,0.00,VWS V14.01,2013-08-15 06:11:00,
2013-08-14 23:16:00,62.3,58.7,29.86,West,270,7.0,12.0,88,0.00,,CLR,0.00,VWS V14.01,2013-08-15 06:16:00,
2013-08-14 23:21:00,62.3,58.7,29.86,WNW,291,5.0,12.0,88,0.00,,CLR,0.00,VWS V14.01,2013-08-15 06:21:00,
2013-08-14 23:26:00,62.4,58.8,29.86,NW,306,7.0,12.0,88,0.00,,CLR,0.00,VWS V14.01,2013-08-15 06:26:00,
2013-08-14 23:31:00,62.4,58.8,29.86,WSW,257,5.0,12.0,88,0.00,,CLR,0.00,VWS V14.01,2013-08-15 06:31:00,
2013-08-14 23:36:00,62.4,58.8,29.86,WNW,285,12.0,12.0,88,0.00,,CLR,0.00,VWS V14.01,2013-08-15 06:36:00,
2013-08-14 23:41:00,62.3,58.7,29.86,NW,324,5.0,12.0,88,0.00,,CLR,0.00,VWS V14.01,2013-08-15 06:41:00,
2013-08-14 23:45:00,62.4,58.5,29.86,West,279,5.0,11.0,87,0.00,,CLR,0.00,VWS V14.01,2013-08-15 06:45:00,
2013-08-14 23:46:00,62.3,58.7,29.85,West,281,2.0,12.0,88,0.00,,CLR,0.00,VWS V14.01,2013-08-15 06:46:00,
2013-08-14 23:51:00,62.1,58.8,29.85,NW,318,1.0,8.0,89,0.00,,CLR,0.00,VWS V14.01,2013-08-15 06:51:00,
2013-08-14 23:56:00,62.0,58.7,29.85,NW,326,8.0,9.0,89,0.00,,CLR,0.00,VWS V14.01,2013-08-15 06:56:00,